sensor_id;sensor_type;location;lat;lon;timestamp;pressure;altitude;pressure_sealevel;temperature;humidity
70971;BME280;58632;51.718;19.446;2022-07-24T00:01:37;99688.94;;;20.81;72.16
70971;BME280;58632;51.718;19.446;2022-07-24T00:04:05;99692.52;;;20.78;72.33
70971;BME280;58632;51.718;19.446;2022-07-24T00:06:33;99701.84;;;20.76;72.35
70971;BME280;58632;51.718;19.446;2022-07-24T00:09:00;99707.23;;;20.75;72.22
70971;BME280;58632;51.718;19.446;2022-07-24T00:11:27;99700.48;;;20.79;72.16
70971;BME280;58632;51.718;19.446;2022-07-24T00:13:55;99705.83;;;20.78;71.89
70971;BME280;58632;51.718;19.446;2022-07-24T00:16:24;99705.42;;;20.76;71.64
70971;BME280;58632;51.718;19.446;2022-07-24T00:18:52;99707.00;;;20.73;71.50
70971;BME280;58632;51.718;19.446;2022-07-24T00:21:19;99709.00;;;20.73;71.38
70971;BME280;58632;51.718;19.446;2022-07-24T00:23:46;99710.39;;;20.69;71.28
70971;BME280;58632;51.718;19.446;2022-07-24T00:26:14;99710.97;;;20.69;71.13
70971;BME280;58632;51.718;19.446;2022-07-24T00:28:41;99718.11;;;20.66;70.98
70971;BME280;58632;51.718;19.446;2022-07-24T00:31:08;99721.09;;;20.60;71.00
70971;BME280;58632;51.718;19.446;2022-07-24T00:33:36;99725.23;;;20.57;70.88
70971;BME280;58632;51.718;19.446;2022-07-24T00:36:04;99723.59;;;20.48;70.96
70971;BME280;58632;51.718;19.446;2022-07-24T00:38:32;99724.95;;;20.45;71.03
70971;BME280;58632;51.718;19.446;2022-07-24T00:40:59;99719.77;;;20.40;70.82
70971;BME280;58632;51.718;19.446;2022-07-24T00:43:27;99719.13;;;20.33;70.92
70971;BME280;58632;51.718;19.446;2022-07-24T00:45:54;99720.08;;;20.24;71.01
70971;BME280;58632;51.718;19.446;2022-07-24T00:48:21;99719.85;;;20.19;70.94
70971;BME280;58632;51.718;19.446;2022-07-24T00:50:49;99721.65;;;20.18;71.39
70971;BME280;58632;51.718;19.446;2022-07-24T00:53:19;99731.34;;;20.14;70.90
70971;BME280;58632;51.718;19.446;2022-07-24T00:55:47;99732.73;;;20.11;70.94
70971;BME280;58632;51.718;19.446;2022-07-24T00:58:14;99734.03;;;20.00;70.88
70971;BME280;58632;51.718;19.446;2022-07-24T01:00:41;99742.52;;;19.94;70.79
70971;BME280;58632;51.718;19.446;2022-07-24T01:03:09;99743.25;;;19.83;70.86
70971;BME280;58632;51.718;19.446;2022-07-24T01:05:36;99740.00;;;19.74;70.99
70971;BME280;58632;51.718;19.446;2022-07-24T01:08:04;99739.98;;;19.71;70.85
70971;BME280;58632;51.718;19.446;2022-07-24T01:10:31;99738.38;;;19.70;70.85
70971;BME280;58632;51.718;19.446;2022-07-24T01:12:59;99744.53;;;19.69;70.79
70971;BME280;58632;51.718;19.446;2022-07-24T01:15:26;99743.14;;;19.69;70.79
70971;BME280;58632;51.718;19.446;2022-07-24T01:17:53;99744.53;;;19.69;70.79
70971;BME280;58632;51.718;19.446;2022-07-24T01:20:21;99743.48;;;19.67;70.68
70971;BME280;58632;51.718;19.446;2022-07-24T01:22:48;99749.89;;;19.68;70.66
70971;BME280;58632;51.718;19.446;2022-07-24T01:25:15;99753.56;;;19.62;70.78
70971;BME280;58632;51.718;19.446;2022-07-24T01:27:42;99750.13;;;19.56;70.87
70971;BME280;58632;51.718;19.446;2022-07-24T01:30:10;99749.09;;;19.51;71.04
70971;BME280;58632;51.718;19.446;2022-07-24T01:32:37;99753.42;;;19.44;71.04
70971;BME280;58632;51.718;19.446;2022-07-24T01:35:05;99753.36;;;19.37;71.05
70971;BME280;58632;51.718;19.446;2022-07-24T01:37:33;99749.75;;;19.33;71.32
70971;BME280;58632;51.718;19.446;2022-07-24T01:40:00;99753.61;;;19.25;71.21
70971;BME280;58632;51.718;19.446;2022-07-24T01:42:28;99754.75;;;19.20;71.17
70971;BME280;58632;51.718;19.446;2022-07-24T01:44:55;99751.17;;;19.16;71.18
70971;BME280;58632;51.718;19.446;2022-07-24T01:47:22;99754.66;;;19.10;71.21
70971;BME280;58632;51.718;19.446;2022-07-24T01:49:49;99756.99;;;19.04;71.34
70971;BME280;58632;51.718;19.446;2022-07-24T01:52:16;99758.33;;;19.00;71.38
70971;BME280;58632;51.718;19.446;2022-07-24T01:54:43;99755.72;;;18.98;71.37
70971;BME280;58632;51.718;19.446;2022-07-24T01:57:10;99752.10;;;18.94;71.59
70971;BME280;58632;51.718;19.446;2022-07-24T01:59:38;99754.77;;;18.83;71.77
70971;BME280;58632;51.718;19.446;2022-07-24T02:02:05;99747.50;;;18.75;72.23
70971;BME280;58632;51.718;19.446;2022-07-24T02:04:32;99746.81;;;18.68;72.13
70971;BME280;58632;51.718;19.446;2022-07-24T02:07:00;99743.78;;;18.63;72.05
70971;BME280;58632;51.718;19.446;2022-07-24T02:09:27;99741.78;;;18.60;72.16
70971;BME280;58632;51.718;19.446;2022-07-24T02:11:55;99738.91;;;18.53;72.27
70971;BME280;58632;51.718;19.446;2022-07-24T02:14:22;99733.91;;;18.49;72.42
70971;BME280;58632;51.718;19.446;2022-07-24T02:16:50;99735.63;;;18.44;72.65
70971;BME280;58632;51.718;19.446;2022-07-24T02:19:17;99738.27;;;18.33;72.70
70971;BME280;58632;51.718;19.446;2022-07-24T02:21:44;99736.30;;;18.34;72.71
70971;BME280;58632;51.718;19.446;2022-07-24T02:24:11;99738.90;;;18.36;72.80
70971;BME280;58632;51.718;19.446;2022-07-24T02:26:38;99742.20;;;18.32;72.62
70971;BME280;58632;51.718;19.446;2022-07-24T02:29:05;99736.66;;;18.32;72.56
70971;BME280;58632;51.718;19.446;2022-07-24T02:31:33;99741.67;;;18.36;72.40
70971;BME280;58632;51.718;19.446;2022-07-24T02:34:01;99742.47;;;18.37;72.32
70971;BME280;58632;51.718;19.446;2022-07-24T02:36:28;99741.78;;;18.30;72.47
70971;BME280;58632;51.718;19.446;2022-07-24T02:38:55;99740.13;;;18.26;72.51
70971;BME280;58632;51.718;19.446;2022-07-24T02:41:22;99743.23;;;18.20;72.55
70971;BME280;58632;51.718;19.446;2022-07-24T02:43:49;99740.09;;;18.22;72.41
70971;BME280;58632;51.718;19.446;2022-07-24T02:46:16;99735.88;;;18.18;72.46
70971;BME280;58632;51.718;19.446;2022-07-24T02:48:44;99737.98;;;18.12;72.54
70971;BME280;58632;51.718;19.446;2022-07-24T02:51:11;99740.22;;;18.03;72.66
70971;BME280;58632;51.718;19.446;2022-07-24T02:53:39;99741.90;;;17.97;72.68
70971;BME280;58632;51.718;19.446;2022-07-24T02:56:06;99741.66;;;17.93;72.89
70971;BME280;58632;51.718;19.446;2022-07-24T02:58:34;99738.46;;;17.91;72.93
70971;BME280;58632;51.718;19.446;2022-07-24T03:01:02;99735.96;;;17.95;72.85
70971;BME280;58632;51.718;19.446;2022-07-24T03:03:30;99743.36;;;18.01;72.73
70971;BME280;58632;51.718;19.446;2022-07-24T03:05:57;99737.72;;;18.07;72.64
70971;BME280;58632;51.718;19.446;2022-07-24T03:08:24;99744.09;;;18.11;72.52
70971;BME280;58632;51.718;19.446;2022-07-24T03:10:51;99747.28;;;18.13;72.29
70971;BME280;58632;51.718;19.446;2022-07-24T03:13:18;99749.79;;;18.09;72.34
70971;BME280;58632;51.718;19.446;2022-07-24T03:15:46;99749.16;;;18.06;72.45
70971;BME280;58632;51.718;19.446;2022-07-24T03:18:13;99756.68;;;18.05;72.31
70971;BME280;58632;51.718;19.446;2022-07-24T03:20:40;99757.91;;;18.08;72.37
70971;BME280;58632;51.718;19.446;2022-07-24T03:23:07;99761.47;;;18.08;72.20
70971;BME280;58632;51.718;19.446;2022-07-24T03:25:35;99766.52;;;18.16;72.10
70971;BME280;58632;51.718;19.446;2022-07-24T03:28:02;99772.39;;;18.24;72.12
70971;BME280;58632;51.718;19.446;2022-07-24T03:30:29;99779.09;;;18.36;71.87
70971;BME280;58632;51.718;19.446;2022-07-24T03:32:57;99785.42;;;18.50;71.48
70971;BME280;58632;51.718;19.446;2022-07-24T03:35:24;99781.13;;;18.56;71.29
70971;BME280;58632;51.718;19.446;2022-07-24T03:37:51;99786.58;;;18.62;71.23
70971;BME280;58632;51.718;19.446;2022-07-24T03:40:18;99788.92;;;18.60;70.84
70971;BME280;58632;51.718;19.446;2022-07-24T03:42:45;99783.70;;;18.55;70.92
70971;BME280;58632;51.718;19.446;2022-07-24T03:45:12;99783.17;;;18.59;70.81
70971;BME280;58632;51.718;19.446;2022-07-24T03:47:41;99780.60;;;18.60;70.86
70971;BME280;58632;51.718;19.446;2022-07-24T03:50:08;99783.36;;;18.74;70.42
70971;BME280;58632;51.718;19.446;2022-07-24T03:52:36;99786.55;;;18.76;70.12
70971;BME280;58632;51.718;19.446;2022-07-24T03:55:04;99785.59;;;18.78;69.99
70971;BME280;58632;51.718;19.446;2022-07-24T03:57:31;99790.61;;;18.82;69.73
70971;BME280;58632;51.718;19.446;2022-07-24T03:59:58;99788.23;;;18.80;69.69
70971;BME280;58632;51.718;19.446;2022-07-24T04:02:26;99796.23;;;18.89;69.28
70971;BME280;58632;51.718;19.446;2022-07-24T04:04:53;99802.81;;;18.91;69.23
70971;BME280;58632;51.718;19.446;2022-07-24T04:07:20;99798.91;;;18.95;68.91
70971;BME280;58632;51.718;19.446;2022-07-24T04:09:47;99804.08;;;18.97;68.59
70971;BME280;58632;51.718;19.446;2022-07-24T04:12:14;99801.08;;;18.96;68.31
70971;BME280;58632;51.718;19.446;2022-07-24T04:14:41;99806.62;;;18.96;68.33
70971;BME280;58632;51.718;19.446;2022-07-24T04:17:09;99807.50;;;19.03;68.21
70971;BME280;58632;51.718;19.446;2022-07-24T04:19:36;99805.66;;;19.15;68.07
70971;BME280;58632;51.718;19.446;2022-07-24T04:22:03;99815.18;;;19.34;67.46
70971;BME280;58632;51.718;19.446;2022-07-24T04:24:30;99816.66;;;19.62;67.24
70971;BME280;58632;51.718;19.446;2022-07-24T04:26:57;99811.37;;;19.91;67.14
70971;BME280;58632;51.718;19.446;2022-07-24T04:29:24;99822.20;;;20.30;66.72
70971;BME280;58632;51.718;19.446;2022-07-24T04:31:52;99822.55;;;20.53;65.80
70971;BME280;58632;51.718;19.446;2022-07-24T04:34:23;99815.70;;;20.67;65.40
70971;BME280;58632;51.718;19.446;2022-07-24T04:36:53;99827.44;;;21.23;64.66
70971;BME280;58632;51.718;19.446;2022-07-24T04:39:20;99822.81;;;21.88;62.24
70971;BME280;58632;51.718;19.446;2022-07-24T04:41:47;99824.91;;;22.71;61.85
70971;BME280;58632;51.718;19.446;2022-07-24T04:44:14;99824.12;;;22.67;60.56
70971;BME280;58632;51.718;19.446;2022-07-24T04:46:42;99822.73;;;22.71;60.81
70971;BME280;58632;51.718;19.446;2022-07-24T04:49:10;99823.33;;;22.70;59.59
70971;BME280;58632;51.718;19.446;2022-07-24T04:51:37;99830.05;;;22.83;59.45
70971;BME280;58632;51.718;19.446;2022-07-24T04:54:05;99826.91;;;22.71;59.50
70971;BME280;58632;51.718;19.446;2022-07-24T04:56:32;99826.74;;;22.55;59.28
70971;BME280;58632;51.718;19.446;2022-07-24T04:59:00;99824.54;;;22.62;59.06
70971;BME280;58632;51.718;19.446;2022-07-24T05:01:28;99830.91;;;22.66;58.69
70971;BME280;58632;51.718;19.446;2022-07-24T05:03:55;99829.31;;;22.69;57.77
70971;BME280;58632;51.718;19.446;2022-07-24T05:06:24;99826.67;;;22.77;57.53
70971;BME280;58632;51.718;19.446;2022-07-24T05:08:51;99828.02;;;22.95;56.01
70971;BME280;58632;51.718;19.446;2022-07-24T05:11:19;99830.41;;;23.03;55.90
70971;BME280;58632;51.718;19.446;2022-07-24T05:13:46;99834.75;;;24.87;52.97
70971;BME280;58632;51.718;19.446;2022-07-24T05:16:13;99830.86;;;26.56;50.80
70971;BME280;58632;51.718;19.446;2022-07-24T05:18:40;99832.98;;;27.00;47.70
70971;BME280;58632;51.718;19.446;2022-07-24T05:21:07;99836.00;;;26.69;47.99
70971;BME280;58632;51.718;19.446;2022-07-24T05:23:35;99845.32;;;26.54;47.94
70971;BME280;58632;51.718;19.446;2022-07-24T05:26:02;99845.50;;;26.67;45.25
70971;BME280;58632;51.718;19.446;2022-07-24T05:28:29;99849.40;;;27.50;43.33
70971;BME280;58632;51.718;19.446;2022-07-24T05:30:56;99845.92;;;27.26;42.29
70971;BME280;58632;51.718;19.446;2022-07-24T05:33:23;99848.26;;;27.83;41.52
70971;BME280;58632;51.718;19.446;2022-07-24T05:35:50;99851.77;;;28.12;41.77
70971;BME280;58632;51.718;19.446;2022-07-24T05:38:18;99846.07;;;27.83;41.14
70971;BME280;58632;51.718;19.446;2022-07-24T05:40:45;99846.31;;;28.21;38.46
70971;BME280;58632;51.718;19.446;2022-07-24T05:43:12;99849.88;;;28.84;39.13
70971;BME280;58632;51.718;19.446;2022-07-24T05:45:40;99848.91;;;29.79;38.09
70971;BME280;58632;51.718;19.446;2022-07-24T05:48:07;99848.16;;;30.61;36.24
70971;BME280;58632;51.718;19.446;2022-07-24T05:50:34;99850.48;;;31.19;35.54
70971;BME280;58632;51.718;19.446;2022-07-24T05:53:01;99849.55;;;31.45;33.18
70971;BME280;58632;51.718;19.446;2022-07-24T05:55:29;99847.09;;;31.60;32.77
70971;BME280;58632;51.718;19.446;2022-07-24T05:57:56;99851.44;;;31.88;32.32
70971;BME280;58632;51.718;19.446;2022-07-24T06:00:23;99845.09;;;32.15;30.56
70971;BME280;58632;51.718;19.446;2022-07-24T06:02:50;99848.86;;;32.21;30.47
70971;BME280;58632;51.718;19.446;2022-07-24T06:05:17;99850.25;;;32.08;30.62
70971;BME280;58632;51.718;19.446;2022-07-24T06:07:44;99860.98;;;32.31;30.68
70971;BME280;58632;51.718;19.446;2022-07-24T06:10:12;99853.33;;;32.55;29.91
70971;BME280;58632;51.718;19.446;2022-07-24T06:12:39;99854.42;;;32.62;29.17
70971;BME280;58632;51.718;19.446;2022-07-24T06:15:08;99853.78;;;32.76;29.46
70971;BME280;58632;51.718;19.446;2022-07-24T06:17:35;99860.54;;;32.97;29.15
70971;BME280;58632;51.718;19.446;2022-07-24T06:20:05;99860.73;;;33.07;29.01
70971;BME280;58632;51.718;19.446;2022-07-24T06:22:33;99862.91;;;33.17;29.83
70971;BME280;58632;51.718;19.446;2022-07-24T06:25:00;99864.80;;;32.97;29.04
70971;BME280;58632;51.718;19.446;2022-07-24T06:27:27;99867.66;;;33.06;28.81
70971;BME280;58632;51.718;19.446;2022-07-24T06:29:54;99861.64;;;33.00;27.70
70971;BME280;58632;51.718;19.446;2022-07-24T06:32:22;99859.94;;;32.93;28.31
70971;BME280;58632;51.718;19.446;2022-07-24T06:34:50;99857.26;;;32.62;29.13
70971;BME280;58632;51.718;19.446;2022-07-24T06:37:17;99864.61;;;32.36;28.96
70971;BME280;58632;51.718;19.446;2022-07-24T06:39:44;99870.87;;;32.03;28.35
70971;BME280;58632;51.718;19.446;2022-07-24T06:42:11;99871.75;;;31.55;28.99
70971;BME280;58632;51.718;19.446;2022-07-24T06:44:39;99877.23;;;31.23;30.26
70971;BME280;58632;51.718;19.446;2022-07-24T06:47:06;99872.02;;;30.95;30.21
70971;BME280;58632;51.718;19.446;2022-07-24T06:49:33;99870.20;;;30.84;30.32
70971;BME280;58632;51.718;19.446;2022-07-24T06:52:00;99877.89;;;30.35;29.48
70971;BME280;58632;51.718;19.446;2022-07-24T06:54:27;99876.78;;;29.77;30.79
70971;BME280;58632;51.718;19.446;2022-07-24T06:56:54;99877.45;;;29.34;31.49
70971;BME280;58632;51.718;19.446;2022-07-24T06:59:22;99877.78;;;28.86;32.08
70971;BME280;58632;51.718;19.446;2022-07-24T07:01:49;99876.53;;;28.66;32.17
70971;BME280;58632;51.718;19.446;2022-07-24T07:04:16;99868.70;;;28.66;33.37
70971;BME280;58632;51.718;19.446;2022-07-24T07:06:43;99871.53;;;28.66;31.52
70971;BME280;58632;51.718;19.446;2022-07-24T07:09:11;99875.95;;;28.59;32.33
70971;BME280;58632;51.718;19.446;2022-07-24T07:11:39;99873.83;;;28.55;32.71
70971;BME280;58632;51.718;19.446;2022-07-24T07:14:06;99863.00;;;28.53;32.58
70971;BME280;58632;51.718;19.446;2022-07-24T07:16:33;99870.05;;;28.53;31.39
70971;BME280;58632;51.718;19.446;2022-07-24T07:19:00;99872.17;;;28.33;31.92
70971;BME280;58632;51.718;19.446;2022-07-24T07:21:27;99875.27;;;27.97;30.92
70971;BME280;58632;51.718;19.446;2022-07-24T07:23:55;99875.48;;;27.78;31.89
70971;BME280;58632;51.718;19.446;2022-07-24T07:26:22;99878.27;;;27.70;33.14
70971;BME280;58632;51.718;19.446;2022-07-24T07:28:49;99874.98;;;27.83;33.19
70971;BME280;58632;51.718;19.446;2022-07-24T07:31:16;99870.85;;;27.96;34.21
70971;BME280;58632;51.718;19.446;2022-07-24T07:33:44;99874.98;;;28.08;32.45
70971;BME280;58632;51.718;19.446;2022-07-24T07:36:11;99875.45;;;28.06;32.99
70971;BME280;58632;51.718;19.446;2022-07-24T07:38:39;99869.99;;;27.99;33.65
70971;BME280;58632;51.718;19.446;2022-07-24T07:41:06;99875.70;;;28.12;33.30
70971;BME280;58632;51.718;19.446;2022-07-24T07:43:33;99879.67;;;28.06;33.46
70971;BME280;58632;51.718;19.446;2022-07-24T07:46:01;99879.67;;;28.06;33.42
70971;BME280;58632;51.718;19.446;2022-07-24T07:48:28;99881.25;;;27.99;33.34
70971;BME280;58632;51.718;19.446;2022-07-24T07:50:57;99881.61;;;27.73;32.97
70971;BME280;58632;51.718;19.446;2022-07-24T07:53:25;99880.23;;;27.81;33.45
70971;BME280;58632;51.718;19.446;2022-07-24T07:55:52;99879.74;;;28.03;34.48
70971;BME280;58632;51.718;19.446;2022-07-24T07:58:20;99880.45;;;27.91;33.21
70971;BME280;58632;51.718;19.446;2022-07-24T08:00:49;99874.73;;;28.02;33.14
70971;BME280;58632;51.718;19.446;2022-07-24T08:03:16;99886.91;;;27.71;33.52
70971;BME280;58632;51.718;19.446;2022-07-24T08:05:43;99884.61;;;27.74;33.84
70971;BME280;58632;51.718;19.446;2022-07-24T08:08:11;99884.96;;;27.40;32.56
70971;BME280;58632;51.718;19.446;2022-07-24T08:10:38;99884.70;;;27.34;33.92
70971;BME280;58632;51.718;19.446;2022-07-24T08:13:05;99888.28;;;27.55;33.36
70971;BME280;58632;51.718;19.446;2022-07-24T08:15:32;99895.20;;;27.22;33.27
70971;BME280;58632;51.718;19.446;2022-07-24T08:18:00;99901.19;;;27.24;33.37
70971;BME280;58632;51.718;19.446;2022-07-24T08:20:27;99893.66;;;27.37;32.16
70971;BME280;58632;51.718;19.446;2022-07-24T08:22:55;99903.80;;;27.51;32.35
70971;BME280;58632;51.718;19.446;2022-07-24T08:25:22;99900.31;;;27.55;32.25
70971;BME280;58632;51.718;19.446;2022-07-24T08:27:49;99903.02;;;27.22;32.60
70971;BME280;58632;51.718;19.446;2022-07-24T08:30:16;99920.00;;;27.35;32.55
70971;BME280;58632;51.718;19.446;2022-07-24T08:32:44;99902.17;;;27.62;33.40
70971;BME280;58632;51.718;19.446;2022-07-24T08:35:12;99905.67;;;27.94;32.34
70971;BME280;58632;51.718;19.446;2022-07-24T08:37:42;99914.05;;;27.70;31.92
70971;BME280;58632;51.718;19.446;2022-07-24T08:40:10;99912.88;;;27.59;32.59
70971;BME280;58632;51.718;19.446;2022-07-24T08:42:39;99907.91;;;27.66;32.26
70971;BME280;58632;51.718;19.446;2022-07-24T08:45:08;99912.65;;;27.78;31.67
70971;BME280;58632;51.718;19.446;2022-07-24T08:47:41;99913.33;;;27.85;32.54
70971;BME280;58632;51.718;19.446;2022-07-24T08:50:08;99917.33;;;27.76;31.64
70971;BME280;58632;51.718;19.446;2022-07-24T08:52:38;99917.83;;;27.99;31.75
70971;BME280;58632;51.718;19.446;2022-07-24T08:55:06;99917.83;;;27.99;32.40
70971;BME280;58632;51.718;19.446;2022-07-24T08:57:34;99914.56;;;27.93;32.36
70971;BME280;58632;51.718;19.446;2022-07-24T09:00:02;99906.91;;;28.18;31.35
70971;BME280;58632;51.718;19.446;2022-07-24T09:02:30;99913.95;;;28.42;32.40
70971;BME280;58632;51.718;19.446;2022-07-24T09:05:01;99920.06;;;28.49;31.18
70971;BME280;58632;51.718;19.446;2022-07-24T09:07:30;99919.42;;;28.33;31.82
70971;BME280;58632;51.718;19.446;2022-07-24T09:10:03;99915.00;;;28.65;32.57
70971;BME280;58632;51.718;19.446;2022-07-24T09:12:40;99914.49;;;28.91;31.29
70971;BME280;58632;51.718;19.446;2022-07-24T09:15:17;99923.03;;;28.42;30.24
70971;BME280;58632;51.718;19.446;2022-07-24T09:17:54;99919.58;;;27.73;31.35
70971;BME280;58632;51.718;19.446;2022-07-24T09:20:25;99918.42;;;27.14;31.76
70971;BME280;58632;51.718;19.446;2022-07-24T09:22:56;99929.60;;;26.86;33.48
70971;BME280;58632;51.718;19.446;2022-07-24T09:25:27;99930.70;;;26.69;33.25
70971;BME280;58632;51.718;19.446;2022-07-24T09:27:58;99920.89;;;27.00;34.37
70971;BME280;58632;51.718;19.446;2022-07-24T09:33:10;99928.38;;;27.67;32.51
70971;BME280;58632;51.718;19.446;2022-07-24T09:35:44;99915.78;;;27.83;32.00
70971;BME280;58632;51.718;19.446;2022-07-24T09:38:22;99930.58;;;28.12;31.59
70971;BME280;58632;51.718;19.446;2022-07-24T09:40:55;99925.94;;;28.30;31.43
70971;BME280;58632;51.718;19.446;2022-07-24T09:43:31;99920.55;;;28.03;31.46
70971;BME280;58632;51.718;19.446;2022-07-24T09:46:02;99930.63;;;27.56;31.39
70971;BME280;58632;51.718;19.446;2022-07-24T09:48:38;99929.97;;;27.08;32.42
70971;BME280;58632;51.718;19.446;2022-07-24T09:51:26;99925.92;;;27.21;33.99
70971;BME280;58632;51.718;19.446;2022-07-24T09:53:59;99924.03;;;27.26;33.62
70971;BME280;58632;51.718;19.446;2022-07-24T09:56:28;99933.89;;;27.34;33.26
70971;BME280;58632;51.718;19.446;2022-07-24T09:58:56;99932.08;;;27.80;33.94
70971;BME280;58632;51.718;19.446;2022-07-24T10:01:27;99931.87;;;27.83;32.71
70971;BME280;58632;51.718;19.446;2022-07-24T10:03:56;99931.09;;;27.62;32.44
70971;BME280;58632;51.718;19.446;2022-07-24T10:06:26;99927.95;;;27.77;33.54
70971;BME280;58632;51.718;19.446;2022-07-24T10:08:55;99927.16;;;28.04;33.99
70971;BME280;58632;51.718;19.446;2022-07-24T10:11:23;99927.59;;;28.36;33.49
70971;BME280;58632;51.718;19.446;2022-07-24T10:13:51;99922.66;;;28.32;32.53
70971;BME280;58632;51.718;19.446;2022-07-24T10:16:27;99929.78;;;28.03;31.86
70971;BME280;58632;51.718;19.446;2022-07-24T10:19:00;99934.72;;;27.43;32.58
70971;BME280;58632;51.718;19.446;2022-07-24T10:21:34;99938.31;;;27.12;33.81
70971;BME280;58632;51.718;19.446;2022-07-24T10:24:12;99940.45;;;27.16;33.36
70971;BME280;58632;51.718;19.446;2022-07-24T10:27:04;99930.33;;;27.22;32.44
70971;BME280;58632;51.718;19.446;2022-07-24T10:29:34;99924.22;;;27.35;32.76
70971;BME280;58632;51.718;19.446;2022-07-24T10:32:03;99925.37;;;27.66;33.38
70971;BME280;58632;51.718;19.446;2022-07-24T10:34:51;99923.89;;;27.98;32.68
70971;BME280;58632;51.718;19.446;2022-07-24T10:37:42;99927.25;;;28.09;32.85
70971;BME280;58632;51.718;19.446;2022-07-24T10:45:46;99932.17;;;27.40;33.10
70971;BME280;58632;51.718;19.446;2022-07-24T10:59:10;99927.75;;;27.68;32.86
70971;BME280;58632;51.718;19.446;2022-07-24T11:01:41;99922.55;;;27.66;33.42
70971;BME280;58632;51.718;19.446;2022-07-24T11:07:11;99928.58;;;27.76;32.66
70971;BME280;58632;51.718;19.446;2022-07-24T11:10:00;99932.40;;;27.66;32.38
70971;BME280;58632;51.718;19.446;2022-07-24T11:12:32;99927.86;;;27.44;32.48
70971;BME280;58632;51.718;19.446;2022-07-24T11:15:06;99926.41;;;27.56;32.34
70971;BME280;58632;51.718;19.446;2022-07-24T11:17:46;99929.99;;;27.28;32.52
70971;BME280;58632;51.718;19.446;2022-07-24T11:20:21;99925.29;;;27.33;33.67
70971;BME280;58632;51.718;19.446;2022-07-24T11:22:50;99911.72;;;27.48;33.65
70971;BME280;58632;51.718;19.446;2022-07-24T11:25:24;99923.34;;;27.58;32.34
70971;BME280;58632;51.718;19.446;2022-07-24T11:30:43;99917.69;;;27.78;33.48
70971;BME280;58632;51.718;19.446;2022-07-24T11:33:17;99918.52;;;28.03;34.00
70971;BME280;58632;51.718;19.446;2022-07-24T11:35:43;99921.62;;;28.09;31.51
70971;BME280;58632;51.718;19.446;2022-07-24T11:38:11;99932.66;;;27.92;31.41
70971;BME280;58632;51.718;19.446;2022-07-24T11:40:38;99932.29;;;27.53;32.67
70971;BME280;58632;51.718;19.446;2022-07-24T11:43:07;99924.84;;;27.35;33.28
70971;BME280;58632;51.718;19.446;2022-07-24T11:45:35;99921.71;;;27.41;33.74
70971;BME280;58632;51.718;19.446;2022-07-24T11:48:03;99923.49;;;27.51;32.07
70971;BME280;58632;51.718;19.446;2022-07-24T11:50:31;99924.95;;;27.68;33.02
70971;BME280;58632;51.718;19.446;2022-07-24T11:52:59;99923.60;;;27.84;33.25
70971;BME280;58632;51.718;19.446;2022-07-24T11:55:26;99917.48;;;27.97;33.31
70971;BME280;58632;51.718;19.446;2022-07-24T11:57:55;99922.57;;;28.11;32.29
70971;BME280;58632;51.718;19.446;2022-07-24T12:00:25;99924.94;;;27.88;33.01
70971;BME280;58632;51.718;19.446;2022-07-24T12:02:58;99926.05;;;27.54;32.21
70971;BME280;58632;51.718;19.446;2022-07-24T12:05:28;99917.19;;;27.55;32.99
70971;BME280;58632;51.718;19.446;2022-07-24T12:07:58;99910.52;;;27.65;33.24
70971;BME280;58632;51.718;19.446;2022-07-24T12:10:27;99906.04;;;27.68;32.99
70971;BME280;58632;51.718;19.446;2022-07-24T12:12:56;99915.46;;;27.78;33.78
70971;BME280;58632;51.718;19.446;2022-07-24T12:15:25;99912.63;;;27.98;32.21
70971;BME280;58632;51.718;19.446;2022-07-24T12:18:04;99917.39;;;28.17;32.58
70971;BME280;58632;51.718;19.446;2022-07-24T12:20:39;99908.50;;;28.27;33.25
70971;BME280;58632;51.718;19.446;2022-07-24T12:23:10;99905.52;;;28.26;32.10
70971;BME280;58632;51.718;19.446;2022-07-24T12:25:39;99904.36;;;27.91;31.89
70971;BME280;58632;51.718;19.446;2022-07-24T12:28:09;99905.72;;;27.74;32.74
70971;BME280;58632;51.718;19.446;2022-07-24T12:30:50;99905.52;;;27.65;32.51
70971;BME280;58632;51.718;19.446;2022-07-24T12:33:22;99907.28;;;27.67;32.59
70971;BME280;58632;51.718;19.446;2022-07-24T12:36:10;99912.34;;;27.56;32.71
70971;BME280;58632;51.718;19.446;2022-07-24T12:38:41;99905.46;;;27.40;32.93
70971;BME280;58632;51.718;19.446;2022-07-24T12:41:13;99904.27;;;27.58;32.71
70971;BME280;58632;51.718;19.446;2022-07-24T12:43:53;99900.57;;;27.53;32.73
70971;BME280;58632;51.718;19.446;2022-07-24T12:46:34;99887.09;;;27.44;32.09
70971;BME280;58632;51.718;19.446;2022-07-24T12:49:10;99891.25;;;27.56;33.03
70971;BME280;58632;51.718;19.446;2022-07-24T12:54:34;99892.66;;;27.56;33.19
70971;BME280;58632;51.718;19.446;2022-07-24T12:57:11;99900.25;;;27.67;33.05
70971;BME280;58632;51.718;19.446;2022-07-24T12:59:41;99897.62;;;27.76;32.51
70971;BME280;58632;51.718;19.446;2022-07-24T13:02:18;99894.72;;;27.80;32.07
70971;BME280;58632;51.718;19.446;2022-07-24T13:04:50;99900.40;;;27.96;32.34
70971;BME280;58632;51.718;19.446;2022-07-24T13:07:21;99898.12;;;27.83;33.10
70971;BME280;58632;51.718;19.446;2022-07-24T13:09:50;99899.78;;;27.89;32.43
70971;BME280;58632;51.718;19.446;2022-07-24T13:12:19;99900.75;;;27.98;31.99
70971;BME280;58632;51.718;19.446;2022-07-24T13:14:47;99905.34;;;28.00;32.34
70971;BME280;58632;51.718;19.446;2022-07-24T13:17:17;99908.94;;;28.01;32.79
70971;BME280;58632;51.718;19.446;2022-07-24T13:19:47;99897.95;;;28.15;32.68
70971;BME280;58632;51.718;19.446;2022-07-24T13:22:17;99903.83;;;28.04;32.48
70971;BME280;58632;51.718;19.446;2022-07-24T13:24:45;99898.05;;;27.95;31.95
70971;BME280;58632;51.718;19.446;2022-07-24T13:27:13;99906.55;;;27.83;32.18